sensor_id;sensor_type;location;lat;lon;timestamp;P1;durP1;ratioP1;P2;durP2;ratioP2
20802;SDS011;10562;-33.856;151.182;2023-06-10T00:02:15;6.57;;;3.47;;
20802;SDS011;10562;-33.856;151.182;2023-06-10T00:04:46;8.93;;;3.50;;
20802;SDS011;10562;-33.856;151.182;2023-06-10T00:07:17;7.72;;;3.42;;
20802;SDS011;10562;-33.856;151.182;2023-06-10T00:09:48;10.98;;;2.80;;
20802;SDS011;10562;-33.856;151.182;2023-06-10T00:12:18;8.52;;;2.90;;
20802;SDS011;10562;-33.856;151.182;2023-06-10T00:14:49;10.30;;;3.50;;
20802;SDS011;10562;-33.856;151.182;2023-06-10T00:17:22;9.07;;;3.38;;
20802;SDS011;10562;-33.856;151.182;2023-06-10T00:19:55;9.40;;;3.13;;
20802;SDS011;10562;-33.856;151.182;2023-06-10T00:22:26;8.70;;;3.03;;
20802;SDS011;10562;-33.856;151.182;2023-06-10T00:24:58;7.55;;;2.97;;
20802;SDS011;10562;-33.856;151.182;2023-06-10T00:27:30;7.78;;;2.50;;
20802;SDS011;10562;-33.856;151.182;2023-06-10T00:30:01;6.05;;;2.42;;
20802;SDS011;10562;-33.856;151.182;2023-06-10T00:32:35;9.35;;;2.70;;
20802;SDS011;10562;-33.856;151.182;2023-06-10T00:35:06;13.88;;;2.90;;
20802;SDS011;10562;-33.856;151.182;2023-06-10T00:37:37;8.80;;;2.30;;
20802;SDS011;10562;-33.856;151.182;2023-06-10T00:40:08;8.02;;;2.17;;
20802;SDS011;10562;-33.856;151.182;2023-06-10T00:42:39;6.60;;;2.00;;
20802;SDS011;10562;-33.856;151.182;2023-06-10T00:45:10;5.85;;;2.20;;
20802;SDS011;10562;-33.856;151.182;2023-06-10T00:47:43;6.53;;;2.10;;
20802;SDS011;10562;-33.856;151.182;2023-06-10T00:50:14;9.70;;;2.03;;
20802;SDS011;10562;-33.856;151.182;2023-06-10T00:52:45;5.35;;;2.28;;
20802;SDS011;10562;-33.856;151.182;2023-06-10T00:55:17;7.82;;;2.00;;
20802;SDS011;10562;-33.856;151.182;2023-06-10T00:57:49;8.55;;;2.13;;
20802;SDS011;10562;-33.856;151.182;2023-06-10T01:00:20;6.63;;;2.00;;
20802;SDS011;10562;-33.856;151.182;2023-06-10T01:02:53;7.25;;;2.20;;
20802;SDS011;10562;-33.856;151.182;2023-06-10T01:05:24;8.57;;;1.92;;
20802;SDS011;10562;-33.856;151.182;2023-06-10T01:07:56;6.97;;;2.13;;
20802;SDS011;10562;-33.856;151.182;2023-06-10T01:10:33;6.75;;;2.00;;
20802;SDS011;10562;-33.856;151.182;2023-06-10T01:13:09;4.32;;;1.73;;
20802;SDS011;10562;-33.856;151.182;2023-06-10T01:15:42;4.72;;;1.83;;
20802;SDS011;10562;-33.856;151.182;2023-06-10T01:18:15;7.05;;;2.17;;
20802;SDS011;10562;-33.856;151.182;2023-06-10T01:20:47;6.60;;;2.05;;
20802;SDS011;10562;-33.856;151.182;2023-06-10T01:23:20;10.48;;;1.88;;
20802;SDS011;10562;-33.856;151.182;2023-06-10T01:25:52;7.38;;;1.98;;
20802;SDS011;10562;-33.856;151.182;2023-06-10T01:28:28;8.50;;;1.63;;
20802;SDS011;10562;-33.856;151.182;2023-06-10T01:31:09;4.85;;;1.60;;
20802;SDS011;10562;-33.856;151.182;2023-06-10T01:33:47;6.97;;;1.42;;
20802;SDS011;10562;-33.856;151.182;2023-06-10T01:36:21;6.05;;;1.60;;
20802;SDS011;10562;-33.856;151.182;2023-06-10T01:38:54;5.10;;;1.55;;
20802;SDS011;10562;-33.856;151.182;2023-06-10T01:41:27;4.63;;;1.50;;
20802;SDS011;10562;-33.856;151.182;2023-06-10T01:43:59;5.38;;;1.30;;
20802;SDS011;10562;-33.856;151.182;2023-06-10T01:46:30;4.70;;;1.30;;
20802;SDS011;10562;-33.856;151.182;2023-06-10T01:49:01;4.65;;;1.27;;
20802;SDS011;10562;-33.856;151.182;2023-06-10T01:51:33;4.15;;;1.20;;
20802;SDS011;10562;-33.856;151.182;2023-06-10T01:54:05;6.72;;;1.45;;
20802;SDS011;10562;-33.856;151.182;2023-06-10T01:56:36;5.72;;;1.00;;
20802;SDS011;10562;-33.856;151.182;2023-06-10T01:59:07;5.53;;;1.35;;
20802;SDS011;10562;-33.856;151.182;2023-06-10T02:01:38;5.10;;;1.23;;
20802;SDS011;10562;-33.856;151.182;2023-06-10T02:04:08;5.32;;;1.40;;
20802;SDS011;10562;-33.856;151.182;2023-06-10T02:06:39;5.10;;;1.23;;
20802;SDS011;10562;-33.856;151.182;2023-06-10T02:09:13;7.88;;;1.30;;
20802;SDS011;10562;-33.856;151.182;2023-06-10T02:11:45;4.65;;;1.20;;
20802;SDS011;10562;-33.856;151.182;2023-06-10T02:14:15;3.08;;;0.90;;
20802;SDS011;10562;-33.856;151.182;2023-06-10T02:16:47;2.80;;;1.00;;
20802;SDS011;10562;-33.856;151.182;2023-06-10T02:19:17;4.57;;;1.10;;
20802;SDS011;10562;-33.856;151.182;2023-06-10T02:21:48;4.20;;;1.20;;
20802;SDS011;10562;-33.856;151.182;2023-06-10T02:24:21;3.35;;;1.20;;
20802;SDS011;10562;-33.856;151.182;2023-06-10T02:26:52;3.53;;;1.10;;
20802;SDS011;10562;-33.856;151.182;2023-06-10T02:29:22;5.28;;;1.27;;
20802;SDS011;10562;-33.856;151.182;2023-06-10T02:31:53;5.28;;;1.30;;
20802;SDS011;10562;-33.856;151.182;2023-06-10T02:34:24;4.82;;;0.90;;
20802;SDS011;10562;-33.856;151.182;2023-06-10T02:36:55;8.65;;;1.33;;
20802;SDS011;10562;-33.856;151.182;2023-06-10T02:39:27;2.92;;;0.90;;
20802;SDS011;10562;-33.856;151.182;2023-06-10T02:41:58;5.53;;;1.02;;
20802;SDS011;10562;-33.856;151.182;2023-06-10T02:44:29;5.10;;;1.30;;
20802;SDS011;10562;-33.856;151.182;2023-06-10T02:47:00;3.72;;;1.00;;
20802;SDS011;10562;-33.856;151.182;2023-06-10T02:49:31;3.20;;;0.85;;
20802;SDS011;10562;-33.856;151.182;2023-06-10T02:52:05;3.72;;;0.93;;
20802;SDS011;10562;-33.856;151.182;2023-06-10T02:54:39;3.25;;;0.88;;
20802;SDS011;10562;-33.856;151.182;2023-06-10T02:57:11;3.97;;;1.10;;
20802;SDS011;10562;-33.856;151.182;2023-06-10T02:59:41;2.40;;;0.90;;
20802;SDS011;10562;-33.856;151.182;2023-06-10T03:02:12;2.85;;;0.80;;
20802;SDS011;10562;-33.856;151.182;2023-06-10T03:04:43;5.03;;;1.45;;
20802;SDS011;10562;-33.856;151.182;2023-06-10T03:07:16;5.68;;;1.50;;
20802;SDS011;10562;-33.856;151.182;2023-06-10T03:09:49;4.60;;;1.35;;
20802;SDS011;10562;-33.856;151.182;2023-06-10T03:12:20;4.72;;;1.00;;
20802;SDS011;10562;-33.856;151.182;2023-06-10T03:14:51;2.72;;;1.10;;
20802;SDS011;10562;-33.856;151.182;2023-06-10T03:17:22;3.50;;;0.80;;
20802;SDS011;10562;-33.856;151.182;2023-06-10T03:19:52;4.13;;;1.13;;
20802;SDS011;10562;-33.856;151.182;2023-06-10T03:22:23;3.08;;;0.95;;
20802;SDS011;10562;-33.856;151.182;2023-06-10T03:24:56;2.58;;;0.95;;
20802;SDS011;10562;-33.856;151.182;2023-06-10T03:27:26;3.22;;;0.90;;
20802;SDS011;10562;-33.856;151.182;2023-06-10T03:29:57;3.78;;;1.20;;
20802;SDS011;10562;-33.856;151.182;2023-06-10T03:32:28;3.33;;;0.80;;
20802;SDS011;10562;-33.856;151.182;2023-06-10T03:34:59;4.13;;;1.00;;
20802;SDS011;10562;-33.856;151.182;2023-06-10T03:37:30;4.03;;;1.10;;
20802;SDS011;10562;-33.856;151.182;2023-06-10T03:40:02;5.57;;;1.10;;
20802;SDS011;10562;-33.856;151.182;2023-06-10T03:42:34;2.90;;;1.08;;
20802;SDS011;10562;-33.856;151.182;2023-06-10T03:45:06;4.55;;;1.10;;
20802;SDS011;10562;-33.856;151.182;2023-06-10T03:47:38;3.38;;;0.90;;
20802;SDS011;10562;-33.856;151.182;2023-06-10T03:50:10;3.22;;;0.93;;
20802;SDS011;10562;-33.856;151.182;2023-06-10T03:52:43;2.30;;;0.90;;
20802;SDS011;10562;-33.856;151.182;2023-06-10T03:55:15;5.63;;;1.15;;
20802;SDS011;10562;-33.856;151.182;2023-06-10T03:57:48;3.90;;;1.13;;
20802;SDS011;10562;-33.856;151.182;2023-06-10T04:00:19;5.63;;;1.10;;
20802;SDS011;10562;-33.856;151.182;2023-06-10T04:02:50;2.08;;;0.82;;
20802;SDS011;10562;-33.856;151.182;2023-06-10T04:05:24;3.80;;;1.10;;
20802;SDS011;10562;-33.856;151.182;2023-06-10T04:07:56;6.43;;;1.13;;
20802;SDS011;10562;-33.856;151.182;2023-06-10T04:10:29;2.67;;;0.85;;
20802;SDS011;10562;-33.856;151.182;2023-06-10T04:13:01;3.28;;;0.95;;
20802;SDS011;10562;-33.856;151.182;2023-06-10T04:15:32;3.75;;;1.10;;
20802;SDS011;10562;-33.856;151.182;2023-06-10T04:18:03;4.72;;;0.90;;
20802;SDS011;10562;-33.856;151.182;2023-06-10T04:20:37;3.25;;;0.73;;
20802;SDS011;10562;-33.856;151.182;2023-06-10T04:23:08;3.05;;;0.90;;
20802;SDS011;10562;-33.856;151.182;2023-06-10T04:25:40;3.97;;;1.30;;
20802;SDS011;10562;-33.856;151.182;2023-06-10T04:28:11;4.03;;;1.02;;
20802;SDS011;10562;-33.856;151.182;2023-06-10T04:30:42;3.67;;;1.10;;
20802;SDS011;10562;-33.856;151.182;2023-06-10T04:33:13;3.28;;;1.10;;
20802;SDS011;10562;-33.856;151.182;2023-06-10T04:35:44;4.47;;;1.20;;
20802;SDS011;10562;-33.856;151.182;2023-06-10T04:38:15;4.03;;;1.20;;
20802;SDS011;10562;-33.856;151.182;2023-06-10T04:40:47;5.18;;;1.20;;
20802;SDS011;10562;-33.856;151.182;2023-06-10T04:43:18;9.63;;;1.95;;
20802;SDS011;10562;-33.856;151.182;2023-06-10T04:45:49;15.32;;;3.15;;
20802;SDS011;10562;-33.856;151.182;2023-06-10T04:48:20;4.95;;;1.55;;
20802;SDS011;10562;-33.856;151.182;2023-06-10T04:50:52;4.00;;;1.50;;
20802;SDS011;10562;-33.856;151.182;2023-06-10T04:53:23;4.60;;;1.38;;
20802;SDS011;10562;-33.856;151.182;2023-06-10T04:55:56;3.10;;;1.10;;
20802;SDS011;10562;-33.856;151.182;2023-06-10T04:58:27;3.90;;;1.27;;
20802;SDS011;10562;-33.856;151.182;2023-06-10T05:01:00;3.90;;;1.40;;
20802;SDS011;10562;-33.856;151.182;2023-06-10T05:03:31;2.83;;;1.17;;
20802;SDS011;10562;-33.856;151.182;2023-06-10T05:06:02;4.18;;;1.17;;
20802;SDS011;10562;-33.856;151.182;2023-06-10T05:08:33;3.20;;;1.10;;
20802;SDS011;10562;-33.856;151.182;2023-06-10T05:11:06;2.55;;;0.98;;
20802;SDS011;10562;-33.856;151.182;2023-06-10T05:13:37;3.28;;;1.27;;
20802;SDS011;10562;-33.856;151.182;2023-06-10T05:16:08;4.05;;;1.30;;
20802;SDS011;10562;-33.856;151.182;2023-06-10T05:18:39;4.18;;;1.30;;
20802;SDS011;10562;-33.856;151.182;2023-06-10T05:21:10;4.85;;;1.20;;
20802;SDS011;10562;-33.856;151.182;2023-06-10T05:23:41;4.93;;;1.75;;
20802;SDS011;10562;-33.856;151.182;2023-06-10T05:26:14;2.35;;;1.10;;
20802;SDS011;10562;-33.856;151.182;2023-06-10T05:28:45;4.18;;;1.30;;
20802;SDS011;10562;-33.856;151.182;2023-06-10T05:31:16;4.55;;;1.10;;
20802;SDS011;10562;-33.856;151.182;2023-06-10T05:33:50;4.90;;;1.30;;
20802;SDS011;10562;-33.856;151.182;2023-06-10T05:36:21;5.80;;;1.30;;
20802;SDS011;10562;-33.856;151.182;2023-06-10T05:38:53;6.20;;;1.50;;
20802;SDS011;10562;-33.856;151.182;2023-06-10T05:41:26;4.57;;;1.10;;
20802;SDS011;10562;-33.856;151.182;2023-06-10T05:43:57;5.97;;;1.50;;
20802;SDS011;10562;-33.856;151.182;2023-06-10T05:46:28;4.93;;;1.00;;
20802;SDS011;10562;-33.856;151.182;2023-06-10T05:48:59;5.43;;;1.17;;
20802;SDS011;10562;-33.856;151.182;2023-06-10T05:51:30;6.30;;;1.45;;
20802;SDS011;10562;-33.856;151.182;2023-06-10T05:54:01;3.85;;;1.00;;
20802;SDS011;10562;-33.856;151.182;2023-06-10T05:56:34;3.08;;;1.17;;
20802;SDS011;10562;-33.856;151.182;2023-06-10T05:59:05;4.55;;;1.23;;
20802;SDS011;10562;-33.856;151.182;2023-06-10T06:01:35;6.63;;;0.98;;
20802;SDS011;10562;-33.856;151.182;2023-06-10T06:04:06;5.55;;;1.38;;
20802;SDS011;10562;-33.856;151.182;2023-06-10T06:06:38;4.22;;;1.00;;
20802;SDS011;10562;-33.856;151.182;2023-06-10T06:09:09;6.15;;;1.40;;
20802;SDS011;10562;-33.856;151.182;2023-06-10T06:11:42;5.85;;;1.25;;
20802;SDS011;10562;-33.856;151.182;2023-06-10T06:14:12;8.45;;;1.23;;
20802;SDS011;10562;-33.856;151.182;2023-06-10T06:16:43;3.58;;;1.00;;
20802;SDS011;10562;-33.856;151.182;2023-06-10T06:19:14;7.45;;;1.17;;
20802;SDS011;10562;-33.856;151.182;2023-06-10T06:21:48;5.22;;;1.10;;
20802;SDS011;10562;-33.856;151.182;2023-06-10T06:24:19;8.60;;;1.25;;
20802;SDS011;10562;-33.856;151.182;2023-06-10T06:26:51;3.78;;;1.00;;
20802;SDS011;10562;-33.856;151.182;2023-06-10T06:29:22;7.75;;;0.90;;
20802;SDS011;10562;-33.856;151.182;2023-06-10T06:31:53;5.22;;;1.00;;
20802;SDS011;10562;-33.856;151.182;2023-06-10T06:34:23;5.70;;;1.05;;
20802;SDS011;10562;-33.856;151.182;2023-06-10T06:36:54;2.83;;;0.95;;
20802;SDS011;10562;-33.856;151.182;2023-06-10T06:39:25;6.05;;;1.15;;
20802;SDS011;10562;-33.856;151.182;2023-06-10T06:41:59;3.25;;;0.98;;
20802;SDS011;10562;-33.856;151.182;2023-06-10T06:44:31;5.07;;;1.13;;
20802;SDS011;10562;-33.856;151.182;2023-06-10T06:47:02;4.65;;;1.20;;
20802;SDS011;10562;-33.856;151.182;2023-06-10T06:49:33;6.63;;;1.70;;
20802;SDS011;10562;-33.856;151.182;2023-06-10T06:52:04;6.32;;;1.50;;
20802;SDS011;10562;-33.856;151.182;2023-06-10T06:54:35;5.43;;;1.77;;
20802;SDS011;10562;-33.856;151.182;2023-06-10T06:57:08;9.82;;;1.88;;
20802;SDS011;10562;-33.856;151.182;2023-06-10T06:59:39;5.20;;;1.60;;
20802;SDS011;10562;-33.856;151.182;2023-06-10T07:02:10;6.00;;;1.40;;
20802;SDS011;10562;-33.856;151.182;2023-06-10T07:04:41;4.85;;;1.50;;
20802;SDS011;10562;-33.856;151.182;2023-06-10T07:07:13;6.60;;;2.15;;
20802;SDS011;10562;-33.856;151.182;2023-06-10T07:09:43;9.68;;;2.20;;
20802;SDS011;10562;-33.856;151.182;2023-06-10T07:12:16;7.18;;;2.30;;
20802;SDS011;10562;-33.856;151.182;2023-06-10T07:14:50;7.15;;;2.42;;
20802;SDS011;10562;-33.856;151.182;2023-06-10T07:17:20;7.88;;;2.53;;
20802;SDS011;10562;-33.856;151.182;2023-06-10T07:19:53;7.05;;;1.80;;
20802;SDS011;10562;-33.856;151.182;2023-06-10T07:22:25;4.60;;;1.45;;
20802;SDS011;10562;-33.856;151.182;2023-06-10T07:24:57;4.72;;;1.38;;
20802;SDS011;10562;-33.856;151.182;2023-06-10T07:27:29;6.32;;;1.60;;
20802;SDS011;10562;-33.856;151.182;2023-06-10T07:30:02;4.22;;;1.40;;
20802;SDS011;10562;-33.856;151.182;2023-06-10T07:32:34;9.02;;;1.52;;
20802;SDS011;10562;-33.856;151.182;2023-06-10T07:35:07;4.35;;;1.25;;
20802;SDS011;10562;-33.856;151.182;2023-06-10T07:37:39;4.32;;;1.50;;
20802;SDS011;10562;-33.856;151.182;2023-06-10T07:40:10;7.72;;;1.92;;
20802;SDS011;10562;-33.856;151.182;2023-06-10T07:42:42;4.05;;;1.45;;
20802;SDS011;10562;-33.856;151.182;2023-06-10T07:45:13;5.47;;;1.55;;
20802;SDS011;10562;-33.856;151.182;2023-06-10T07:47:44;4.25;;;1.50;;
20802;SDS011;10562;-33.856;151.182;2023-06-10T07:50:15;6.32;;;1.30;;
20802;SDS011;10562;-33.856;151.182;2023-06-10T07:52:46;6.03;;;1.50;;
20802;SDS011;10562;-33.856;151.182;2023-06-10T07:55:16;6.35;;;1.60;;
20802;SDS011;10562;-33.856;151.182;2023-06-10T07:57:54;7.05;;;1.70;;
20802;SDS011;10562;-33.856;151.182;2023-06-10T08:00:25;5.40;;;1.67;;
20802;SDS011;10562;-33.856;151.182;2023-06-10T08:02:55;4.72;;;1.70;;
20802;SDS011;10562;-33.856;151.182;2023-06-10T08:05:27;22.67;;;12.63;;
20802;SDS011;10562;-33.856;151.182;2023-06-10T08:07:57;16.20;;;8.48;;
20802;SDS011;10562;-33.856;151.182;2023-06-10T08:10:28;13.98;;;6.03;;
20802;SDS011;10562;-33.856;151.182;2023-06-10T08:13:03;15.32;;;5.60;;
20802;SDS011;10562;-33.856;151.182;2023-06-10T08:15:33;11.30;;;4.13;;
20802;SDS011;10562;-33.856;151.182;2023-06-10T08:18:04;9.93;;;4.03;;
20802;SDS011;10562;-33.856;151.182;2023-06-10T08:20:35;9.13;;;3.92;;
20802;SDS011;10562;-33.856;151.182;2023-06-10T08:23:06;12.63;;;5.18;;
20802;SDS011;10562;-33.856;151.182;2023-06-10T08:25:37;23.88;;;14.07;;
20802;SDS011;10562;-33.856;151.182;2023-06-10T08:28:09;26.98;;;14.65;;
20802;SDS011;10562;-33.856;151.182;2023-06-10T08:30:43;16.33;;;8.70;;
20802;SDS011;10562;-33.856;151.182;2023-06-10T08:33:13;17.88;;;6.65;;
20802;SDS011;10562;-33.856;151.182;2023-06-10T08:35:44;11.38;;;5.63;;
20802;SDS011;10562;-33.856;151.182;2023-06-10T08:38:15;10.23;;;4.10;;
20802;SDS011;10562;-33.856;151.182;2023-06-10T08:40:46;10.40;;;3.70;;
20802;SDS011;10562;-33.856;151.182;2023-06-10T08:43:21;11.30;;;3.75;;
20802;SDS011;10562;-33.856;151.182;2023-06-10T08:46:00;12.38;;;4.75;;
20802;SDS011;10562;-33.856;151.182;2023-06-10T08:48:31;10.82;;;5.78;;
20802;SDS011;10562;-33.856;151.182;2023-06-10T08:51:06;13.57;;;5.38;;
20802;SDS011;10562;-33.856;151.182;2023-06-10T08:53:41;12.55;;;4.97;;
20802;SDS011;10562;-33.856;151.182;2023-06-10T08:56:19;12.23;;;4.85;;
20802;SDS011;10562;-33.856;151.182;2023-06-10T08:58:54;10.05;;;3.67;;
20802;SDS011;10562;-33.856;151.182;2023-06-10T09:01:26;10.48;;;3.97;;
20802;SDS011;10562;-33.856;151.182;2023-06-10T09:03:58;7.82;;;3.42;;
20802;SDS011;10562;-33.856;151.182;2023-06-10T09:06:30;13.23;;;4.80;;
20802;SDS011;10562;-33.856;151.182;2023-06-10T09:09:02;15.05;;;6.28;;
20802;SDS011;10562;-33.856;151.182;2023-06-10T09:11:34;13.77;;;5.30;;
20802;SDS011;10562;-33.856;151.182;2023-06-10T09:14:07;12.50;;;5.25;;
20802;SDS011;10562;-33.856;151.182;2023-06-10T09:16:38;14.27;;;5.78;;
20802;SDS011;10562;-33.856;151.182;2023-06-10T09:19:12;14.82;;;6.22;;
20802;SDS011;10562;-33.856;151.182;2023-06-10T09:21:44;16.80;;;6.28;;
20802;SDS011;10562;-33.856;151.182;2023-06-10T09:24:15;14.70;;;5.30;;
20802;SDS011;10562;-33.856;151.182;2023-06-10T09:26:45;17.08;;;5.22;;
20802;SDS011;10562;-33.856;151.182;2023-06-10T09:29:19;12.23;;;5.03;;
20802;SDS011;10562;-33.856;151.182;2023-06-10T09:31:49;13.55;;;5.05;;
20802;SDS011;10562;-33.856;151.182;2023-06-10T09:34:24;16.42;;;6.88;;
20802;SDS011;10562;-33.856;151.182;2023-06-10T09:36:55;24.80;;;9.25;;
20802;SDS011;10562;-33.856;151.182;2023-06-10T09:39:26;16.35;;;7.05;;
20802;SDS011;10562;-33.856;151.182;2023-06-10T09:41:57;17.00;;;5.45;;
20802;SDS011;10562;-33.856;151.182;2023-06-10T09:44:30;11.50;;;5.05;;
20802;SDS011;10562;-33.856;151.182;2023-06-10T09:47:01;15.25;;;6.40;;
20802;SDS011;10562;-33.856;151.182;2023-06-10T09:49:32;15.00;;;5.63;;
20802;SDS011;10562;-33.856;151.182;2023-06-10T09:52:06;24.42;;;6.32;;
20802;SDS011;10562;-33.856;151.182;2023-06-10T09:54:37;19.40;;;5.50;;
20802;SDS011;10562;-33.856;151.182;2023-06-10T09:57:08;14.05;;;5.38;;
20802;SDS011;10562;-33.856;151.182;2023-06-10T09:59:40;13.07;;;4.50;;
20802;SDS011;10562;-33.856;151.182;2023-06-10T10:02:13;17.65;;;5.25;;
20802;SDS011;10562;-33.856;151.182;2023-06-10T10:04:44;14.82;;;5.28;;
20802;SDS011;10562;-33.856;151.182;2023-06-10T10:07:15;14.35;;;5.40;;
20802;SDS011;10562;-33.856;151.182;2023-06-10T10:09:46;15.95;;;5.70;;
20802;SDS011;10562;-33.856;151.182;2023-06-10T10:12:17;16.73;;;6.90;;
20802;SDS011;10562;-33.856;151.182;2023-06-10T10:14:51;18.33;;;6.95;;
20802;SDS011;10562;-33.856;151.182;2023-06-10T10:17:24;16.85;;;7.10;;
20802;SDS011;10562;-33.856;151.182;2023-06-10T10:19:58;21.05;;;8.05;;
20802;SDS011;10562;-33.856;151.182;2023-06-10T10:22:33;20.05;;;9.27;;
20802;SDS011;10562;-33.856;151.182;2023-06-10T10:25:10;22.27;;;9.70;;
20802;SDS011;10562;-33.856;151.182;2023-06-10T10:27:44;22.65;;;9.73;;
20802;SDS011;10562;-33.856;151.182;2023-06-10T10:30:19;22.40;;;10.20;;
20802;SDS011;10562;-33.856;151.182;2023-06-10T10:32:52;22.80;;;10.07;;
20802;SDS011;10562;-33.856;151.182;2023-06-10T10:35:30;21.95;;;9.73;;
20802;SDS011;10562;-33.856;151.182;2023-06-10T10:38:01;24.73;;;9.57;;
20802;SDS011;10562;-33.856;151.182;2023-06-10T10:40:33;21.95;;;10.05;;
20802;SDS011;10562;-33.856;151.182;2023-06-10T10:43:05;25.98;;;10.82;;
20802;SDS011;10562;-33.856;151.182;2023-06-10T10:45:38;25.10;;;11.30;;
20802;SDS011;10562;-33.856;151.182;2023-06-10T10:48:11;22.73;;;10.68;;
20802;SDS011;10562;-33.856;151.182;2023-06-10T10:50:43;25.10;;;10.40;;
20802;SDS011;10562;-33.856;151.182;2023-06-10T10:53:26;24.65;;;10.27;;
20802;SDS011;10562;-33.856;151.182;2023-06-10T10:56:00;27.75;;;10.30;;
20802;SDS011;10562;-33.856;151.182;2023-06-10T10:58:35;28.13;;;10.00;;
20802;SDS011;10562;-33.856;151.182;2023-06-10T11:01:14;47.38;;;21.00;;
20802;SDS011;10562;-33.856;151.182;2023-06-10T11:03:45;36.72;;;15.65;;
20802;SDS011;10562;-33.856;151.182;2023-06-10T11:06:17;29.48;;;12.52;;
20802;SDS011;10562;-33.856;151.182;2023-06-10T11:08:49;29.85;;;12.02;;
20802;SDS011;10562;-33.856;151.182;2023-06-10T11:11:23;23.40;;;10.18;;
20802;SDS011;10562;-33.856;151.182;2023-06-10T11:14:07;20.58;;;9.20;;
20802;SDS011;10562;-33.856;151.182;2023-06-10T11:16:43;19.40;;;9.05;;
20802;SDS011;10562;-33.856;151.182;2023-06-10T11:22:06;22.85;;;9.40;;
20802;SDS011;10562;-33.856;151.182;2023-06-10T11:24:37;23.90;;;10.35;;
20802;SDS011;10562;-33.856;151.182;2023-06-10T11:27:18;21.77;;;9.73;;
20802;SDS011;10562;-33.856;151.182;2023-06-10T11:30:00;21.98;;;10.70;;
20802;SDS011;10562;-33.856;151.182;2023-06-10T11:32:52;32.72;;;12.05;;
20802;SDS011;10562;-33.856;151.182;2023-06-10T11:35:24;33.88;;;11.60;;
20802;SDS011;10562;-33.856;151.182;2023-06-10T11:37:56;30.20;;;11.07;;
20802;SDS011;10562;-33.856;151.182;2023-06-10T11:40:26;23.58;;;10.75;;
20802;SDS011;10562;-33.856;151.182;2023-06-10T11:42:58;29.05;;;10.32;;
20802;SDS011;10562;-33.856;151.182;2023-06-10T11:45:29;26.55;;;10.70;;
20802;SDS011;10562;-33.856;151.182;2023-06-10T11:48:01;27.77;;;10.55;;
20802;SDS011;10562;-33.856;151.182;2023-06-10T11:50:33;25.65;;;10.32;;
20802;SDS011;10562;-33.856;151.182;2023-06-10T11:53:04;20.77;;;9.40;;
20802;SDS011;10562;-33.856;151.182;2023-06-10T11:55:41;22.73;;;9.48;;
20802;SDS011;10562;-33.856;151.182;2023-06-10T11:58:13;27.83;;;10.18;;
20802;SDS011;10562;-33.856;151.182;2023-06-10T12:00:45;25.63;;;10.07;;
20802;SDS011;10562;-33.856;151.182;2023-06-10T12:03:18;23.25;;;10.15;;
20802;SDS011;10562;-33.856;151.182;2023-06-10T12:05:56;22.45;;;9.82;;
20802;SDS011;10562;-33.856;151.182;2023-06-10T12:08:28;25.58;;;9.85;;
20802;SDS011;10562;-33.856;151.182;2023-06-10T12:11:00;21.17;;;9.60;;
20802;SDS011;10562;-33.856;151.182;2023-06-10T12:13:31;22.80;;;9.77;;
20802;SDS011;10562;-33.856;151.182;2023-06-10T12:16:08;24.20;;;10.80;;
20802;SDS011;10562;-33.856;151.182;2023-06-10T12:18:41;29.17;;;10.77;;
20802;SDS011;10562;-33.856;151.182;2023-06-10T12:21:17;27.20;;;12.18;;
20802;SDS011;10562;-33.856;151.182;2023-06-10T12:24:04;26.35;;;11.93;;
20802;SDS011;10562;-33.856;151.182;2023-06-10T12:26:39;26.40;;;12.25;;
20802;SDS011;10562;-33.856;151.182;2023-06-10T12:29:18;20.48;;;11.45;;
20802;SDS011;10562;-33.856;151.182;2023-06-10T12:31:57;22.05;;;11.70;;
20802;SDS011;10562;-33.856;151.182;2023-06-10T12:34:34;22.13;;;11.50;;
20802;SDS011;10562;-33.856;151.182;2023-06-10T12:37:09;21.30;;;11.68;;
20802;SDS011;10562;-33.856;151.182;2023-06-10T12:39:41;21.20;;;11.23;;
20802;SDS011;10562;-33.856;151.182;2023-06-10T12:42:21;21.15;;;11.38;;
20802;SDS011;10562;-33.856;151.182;2023-06-10T12:44:53;20.55;;;9.95;;
20802;SDS011;10562;-33.856;151.182;2023-06-10T12:47:30;18.38;;;9.25;;
20802;SDS011;10562;-33.856;151.182;2023-06-10T12:50:03;18.17;;;9.32;;
20802;SDS011;10562;-33.856;151.182;2023-06-10T12:52:34;16.90;;;9.27;;
20802;SDS011;10562;-33.856;151.182;2023-06-10T12:55:05;18.13;;;9.35;;
20802;SDS011;10562;-33.856;151.182;2023-06-10T12:57:36;17.35;;;8.70;;
20802;SDS011;10562;-33.856;151.182;2023-06-10T13:00:16;20.10;;;9.52;;
20802;SDS011;10562;-33.856;151.182;2023-06-10T13:02:48;21.65;;;8.50;;
20802;SDS011;10562;-33.856;151.182;2023-06-10T13:05:21;16.10;;;7.65;;
20802;SDS011;10562;-33.856;151.182;2023-06-10T13:07:52;15.60;;;7.88;;
20802;SDS011;10562;-33.856;151.182;2023-06-10T13:10:22;19.80;;;8.75;;
20802;SDS011;10562;-33.856;151.182;2023-06-10T13:12:53;21.05;;;9.55;;
20802;SDS011;10562;-33.856;151.182;2023-06-10T13:15:25;20.92;;;9.00;;
20802;SDS011;10562;-33.856;151.182;2023-06-10T13:17:56;18.65;;;8.80;;
20802;SDS011;10562;-33.856;151.182;2023-06-10T13:20:29;21.05;;;9.15;;
20802;SDS011;10562;-33.856;151.182;2023-06-10T13:22:59;18.23;;;8.55;;
20802;SDS011;10562;-33.856;151.182;2023-06-10T13:25:31;25.08;;;12.75;;
20802;SDS011;10562;-33.856;151.182;2023-06-10T13:28:03;29.70;;;15.85;;
20802;SDS011;10562;-33.856;151.182;2023-06-10T13:30:34;28.48;;;14.07;;
20802;SDS011;10562;-33.856;151.182;2023-06-10T13:33:05;24.52;;;12.88;;
20802;SDS011;10562;-33.856;151.182;2023-06-10T13:35:37;26.98;;;13.65;;
20802;SDS011;10562;-33.856;151.182;2023-06-10T13:38:08;25.65;;;12.95;;
20802;SDS011;10562;-33.856;151.182;2023-06-10T13:40:40;23.25;;;12.82;;
20802;SDS011;10562;-33.856;151.182;2023-06-10T13:43:11;22.77;;;12.88;;
20802;SDS011;10562;-33.856;151.182;2023-06-10T13:45:42;31.48;;;12.63;;
20802;SDS011;10562;-33.856;151.182;2023-06-10T13:48:13;25.63;;;14.35;;
20802;SDS011;10562;-33.856;151.182;2023-06-10T13:50:46;22.85;;;13.43;;
20802;SDS011;10562;-33.856;151.182;2023-06-10T13:53:17;28.02;;;16.38;;
20802;SDS011;10562;-33.856;151.182;2023-06-10T13:55:47;31.60;;;18.27;;
20802;SDS011;10562;-33.856;151.182;2023-06-10T13:58:18;29.25;;;16.63;;
20802;SDS011;10562;-33.856;151.182;2023-06-10T14:00:49;34.15;;;19.20;;
20802;SDS011;10562;-33.856;151.182;2023-06-10T14:03:20;31.02;;;18.40;;
20802;SDS011;10562;-33.856;151.182;2023-06-10T14:05:52;36.35;;;19.42;;
20802;SDS011;10562;-33.856;151.182;2023-06-10T14:08:23;32.13;;;19.70;;
20802;SDS011;10562;-33.856;151.182;2023-06-10T14:10:54;30.70;;;18.15;;
20802;SDS011;10562;-33.856;151.182;2023-06-10T14:13:25;27.67;;;18.80;;
20802;SDS011;10562;-33.856;151.182;2023-06-10T14:15:55;27.42;;;17.75;;
20802;SDS011;10562;-33.856;151.182;2023-06-10T14:18:28;31.15;;;18.13;;
20802;SDS011;10562;-33.856;151.182;2023-06-10T14:21:02;29.92;;;17.35;;
20802;SDS011;10562;-33.856;151.182;2023-06-10T14:23:33;29.88;;;18.27;;
20802;SDS011;10562;-33.856;151.182;2023-06-10T14:26:04;25.42;;;15.93;;
20802;SDS011;10562;-33.856;151.182;2023-06-10T14:28:34;25.75;;;16.05;;
20802;SDS011;10562;-33.856;151.182;2023-06-10T14:31:06;24.58;;;16.00;;
20802;SDS011;10562;-33.856;151.182;2023-06-10T14:33:37;23.42;;;14.77;;